sensor_id;sensor_type;location;lat;lon;timestamp;P1;durP1;ratioP1;P2;durP2;ratioP2
29238;SDS011;16267;48.194;11.546;2023-06-19T00:01:11;3.15;;;2.30;;
29238;SDS011;16267;48.194;11.546;2023-06-19T00:03:36;5.03;;;2.42;;
29238;SDS011;16267;48.194;11.546;2023-06-19T00:06:02;3.35;;;2.00;;
29238;SDS011;16267;48.194;11.546;2023-06-19T00:08:28;2.65;;;1.92;;
29238;SDS011;16267;48.194;11.546;2023-06-19T00:10:54;3.67;;;1.95;;
29238;SDS011;16267;48.194;11.546;2023-06-19T00:13:19;3.33;;;2.03;;
29238;SDS011;16267;48.194;11.546;2023-06-19T00:15:46;5.40;;;2.55;;
29238;SDS011;16267;48.194;11.546;2023-06-19T00:18:12;3.67;;;2.30;;
29238;SDS011;16267;48.194;11.546;2023-06-19T00:20:38;3.22;;;1.83;;
29238;SDS011;16267;48.194;11.546;2023-06-19T00:23:04;3.58;;;2.10;;
29238;SDS011;16267;48.194;11.546;2023-06-19T00:25:31;3.80;;;2.15;;
29238;SDS011;16267;48.194;11.546;2023-06-19T00:27:57;4.28;;;2.20;;
29238;SDS011;16267;48.194;11.546;2023-06-19T00:30:22;3.45;;;2.15;;
29238;SDS011;16267;48.194;11.546;2023-06-19T00:32:48;2.83;;;1.98;;
29238;SDS011;16267;48.194;11.546;2023-06-19T00:35:15;5.32;;;2.80;;
29238;SDS011;16267;48.194;11.546;2023-06-19T00:37:43;3.63;;;2.28;;
29238;SDS011;16267;48.194;11.546;2023-06-19T00:40:31;3.28;;;2.13;;
29238;SDS011;16267;48.194;11.546;2023-06-19T00:42:57;3.63;;;2.40;;
29238;SDS011;16267;48.194;11.546;2023-06-19T00:45:23;3.80;;;2.50;;
29238;SDS011;16267;48.194;11.546;2023-06-19T00:47:50;3.47;;;2.45;;
29238;SDS011;16267;48.194;11.546;2023-06-19T00:50:22;4.43;;;2.40;;
29238;SDS011;16267;48.194;11.546;2023-06-19T00:52:48;3.97;;;2.30;;
29238;SDS011;16267;48.194;11.546;2023-06-19T00:55:14;4.40;;;2.10;;
29238;SDS011;16267;48.194;11.546;2023-06-19T00:57:41;3.95;;;2.53;;
29238;SDS011;16267;48.194;11.546;2023-06-19T01:00:09;3.45;;;2.20;;
29238;SDS011;16267;48.194;11.546;2023-06-19T01:02:37;3.20;;;2.40;;
29238;SDS011;16267;48.194;11.546;2023-06-19T01:05:04;3.13;;;2.00;;
29238;SDS011;16267;48.194;11.546;2023-06-19T01:07:47;3.90;;;2.08;;
29238;SDS011;16267;48.194;11.546;2023-06-19T01:10:44;4.00;;;2.28;;
29238;SDS011;16267;48.194;11.546;2023-06-19T01:15:53;4.07;;;2.38;;
29238;SDS011;16267;48.194;11.546;2023-06-19T01:18:21;4.53;;;2.60;;
29238;SDS011;16267;48.194;11.546;2023-06-19T01:20:49;3.05;;;1.90;;
29238;SDS011;16267;48.194;11.546;2023-06-19T01:23:15;3.97;;;2.40;;
29238;SDS011;16267;48.194;11.546;2023-06-19T01:25:40;3.83;;;2.17;;
29238;SDS011;16267;48.194;11.546;2023-06-19T01:28:07;2.65;;;1.85;;
29238;SDS011;16267;48.194;11.546;2023-06-19T01:30:37;3.13;;;2.00;;
29238;SDS011;16267;48.194;11.546;2023-06-19T01:33:09;3.00;;;1.85;;
29238;SDS011;16267;48.194;11.546;2023-06-19T01:35:51;3.88;;;1.80;;
29238;SDS011;16267;48.194;11.546;2023-06-19T01:38:18;3.13;;;2.17;;
29238;SDS011;16267;48.194;11.546;2023-06-19T01:40:47;3.60;;;1.98;;
29238;SDS011;16267;48.194;11.546;2023-06-19T01:43:14;4.90;;;2.97;;
29238;SDS011;16267;48.194;11.546;2023-06-19T01:45:42;5.07;;;2.67;;
29238;SDS011;16267;48.194;11.546;2023-06-19T01:48:08;2.97;;;2.20;;
29238;SDS011;16267;48.194;11.546;2023-06-19T01:50:35;3.95;;;2.58;;
29238;SDS011;16267;48.194;11.546;2023-06-19T01:53:00;3.45;;;2.15;;
29238;SDS011;16267;48.194;11.546;2023-06-19T01:55:26;3.53;;;2.40;;
29238;SDS011;16267;48.194;11.546;2023-06-19T01:57:52;4.40;;;2.40;;
29238;SDS011;16267;48.194;11.546;2023-06-19T02:00:18;3.53;;;2.28;;
29238;SDS011;16267;48.194;11.546;2023-06-19T02:02:44;3.50;;;2.50;;
29238;SDS011;16267;48.194;11.546;2023-06-19T02:05:09;3.63;;;2.25;;
29238;SDS011;16267;48.194;11.546;2023-06-19T02:07:38;4.40;;;2.53;;
29238;SDS011;16267;48.194;11.546;2023-06-19T02:10:04;3.97;;;2.20;;
29238;SDS011;16267;48.194;11.546;2023-06-19T02:12:30;3.67;;;2.13;;
29238;SDS011;16267;48.194;11.546;2023-06-19T02:14:56;3.22;;;2.15;;
29238;SDS011;16267;48.194;11.546;2023-06-19T02:17:22;3.03;;;1.92;;
29238;SDS011;16267;48.194;11.546;2023-06-19T02:19:47;2.58;;;1.90;;
29238;SDS011;16267;48.194;11.546;2023-06-19T02:22:13;3.63;;;2.05;;
29238;SDS011;16267;48.194;11.546;2023-06-19T02:24:39;4.90;;;2.50;;
29238;SDS011;16267;48.194;11.546;2023-06-19T02:27:05;4.15;;;2.38;;
29238;SDS011;16267;48.194;11.546;2023-06-19T02:29:31;3.65;;;2.30;;
29238;SDS011;16267;48.194;11.546;2023-06-19T02:31:59;2.90;;;2.20;;
29238;SDS011;16267;48.194;11.546;2023-06-19T02:34:25;4.40;;;2.70;;
29238;SDS011;16267;48.194;11.546;2023-06-19T02:36:51;3.47;;;2.10;;
29238;SDS011;16267;48.194;11.546;2023-06-19T02:39:16;4.18;;;2.35;;
29238;SDS011;16267;48.194;11.546;2023-06-19T02:41:43;4.82;;;2.28;;
29238;SDS011;16267;48.194;11.546;2023-06-19T02:44:11;3.45;;;2.33;;
29238;SDS011;16267;48.194;11.546;2023-06-19T02:46:37;3.80;;;2.33;;
29238;SDS011;16267;48.194;11.546;2023-06-19T02:49:03;3.47;;;2.03;;
29238;SDS011;16267;48.194;11.546;2023-06-19T02:51:29;2.65;;;1.80;;
29238;SDS011;16267;48.194;11.546;2023-06-19T02:53:55;5.20;;;2.70;;
29238;SDS011;16267;48.194;11.546;2023-06-19T02:56:21;2.90;;;2.08;;
29238;SDS011;16267;48.194;11.546;2023-06-19T02:58:47;3.63;;;2.70;;
29238;SDS011;16267;48.194;11.546;2023-06-19T03:01:13;3.72;;;2.38;;
29238;SDS011;16267;48.194;11.546;2023-06-19T03:03:39;5.93;;;2.45;;
29238;SDS011;16267;48.194;11.546;2023-06-19T03:06:06;3.15;;;2.15;;
29238;SDS011;16267;48.194;11.546;2023-06-19T03:08:33;3.63;;;2.28;;
29238;SDS011;16267;48.194;11.546;2023-06-19T03:11:00;4.03;;;2.75;;
29238;SDS011;16267;48.194;11.546;2023-06-19T03:13:29;4.45;;;1.90;;
29238;SDS011;16267;48.194;11.546;2023-06-19T03:16:00;5.05;;;2.55;;
29238;SDS011;16267;48.194;11.546;2023-06-19T03:18:26;4.05;;;2.17;;
29238;SDS011;16267;48.194;11.546;2023-06-19T03:20:52;3.92;;;2.33;;
29238;SDS011;16267;48.194;11.546;2023-06-19T03:23:17;2.97;;;1.98;;
29238;SDS011;16267;48.194;11.546;2023-06-19T03:25:43;3.63;;;2.55;;
29238;SDS011;16267;48.194;11.546;2023-06-19T03:28:09;4.15;;;2.78;;
29238;SDS011;16267;48.194;11.546;2023-06-19T03:30:34;7.15;;;2.65;;
29238;SDS011;16267;48.194;11.546;2023-06-19T03:33:00;3.58;;;2.80;;
29238;SDS011;16267;48.194;11.546;2023-06-19T03:35:27;3.22;;;2.28;;
29238;SDS011;16267;48.194;11.546;2023-06-19T03:37:53;3.17;;;2.00;;
29238;SDS011;16267;48.194;11.546;2023-06-19T03:40:19;3.42;;;2.50;;
29238;SDS011;16267;48.194;11.546;2023-06-19T03:42:45;4.55;;;2.55;;
29238;SDS011;16267;48.194;11.546;2023-06-19T03:45:10;3.45;;;2.10;;
29238;SDS011;16267;48.194;11.546;2023-06-19T03:47:36;5.63;;;2.42;;
29238;SDS011;16267;48.194;11.546;2023-06-19T03:50:02;3.92;;;2.67;;
29238;SDS011;16267;48.194;11.546;2023-06-19T03:52:29;5.03;;;2.50;;
29238;SDS011;16267;48.194;11.546;2023-06-19T03:54:54;3.97;;;2.30;;
29238;SDS011;16267;48.194;11.546;2023-06-19T03:57:20;4.13;;;2.70;;
29238;SDS011;16267;48.194;11.546;2023-06-19T03:59:46;3.95;;;2.33;;
29238;SDS011;16267;48.194;11.546;2023-06-19T04:02:12;4.18;;;2.35;;
29238;SDS011;16267;48.194;11.546;2023-06-19T04:04:37;3.40;;;2.40;;
29238;SDS011;16267;48.194;11.546;2023-06-19T04:07:04;3.88;;;2.47;;
29238;SDS011;16267;48.194;11.546;2023-06-19T04:09:30;3.58;;;1.98;;
29238;SDS011;16267;48.194;11.546;2023-06-19T04:11:55;3.95;;;2.65;;
29238;SDS011;16267;48.194;11.546;2023-06-19T04:14:21;3.55;;;2.03;;
29238;SDS011;16267;48.194;11.546;2023-06-19T04:16:48;4.38;;;2.35;;
29238;SDS011;16267;48.194;11.546;2023-06-19T04:19:14;3.92;;;2.17;;
29238;SDS011;16267;48.194;11.546;2023-06-19T04:21:39;4.93;;;2.90;;
29238;SDS011;16267;48.194;11.546;2023-06-19T04:24:05;4.47;;;2.53;;
29238;SDS011;16267;48.194;11.546;2023-06-19T04:26:33;3.58;;;2.58;;
29238;SDS011;16267;48.194;11.546;2023-06-19T04:29:01;3.65;;;2.35;;
29238;SDS011;16267;48.194;11.546;2023-06-19T04:31:28;4.15;;;2.47;;
29238;SDS011;16267;48.194;11.546;2023-06-19T04:33:55;4.03;;;2.55;;
29238;SDS011;16267;48.194;11.546;2023-06-19T04:36:21;4.28;;;2.28;;
29238;SDS011;16267;48.194;11.546;2023-06-19T04:38:48;6.70;;;3.28;;
29238;SDS011;16267;48.194;11.546;2023-06-19T04:41:16;3.28;;;2.40;;
29238;SDS011;16267;48.194;11.546;2023-06-19T04:43:42;3.72;;;2.20;;
29238;SDS011;16267;48.194;11.546;2023-06-19T04:46:08;3.53;;;2.10;;
29238;SDS011;16267;48.194;11.546;2023-06-19T04:48:36;3.80;;;2.47;;
29238;SDS011;16267;48.194;11.546;2023-06-19T04:51:02;4.32;;;2.45;;
29238;SDS011;16267;48.194;11.546;2023-06-19T04:53:28;7.25;;;2.53;;
29238;SDS011;16267;48.194;11.546;2023-06-19T04:55:54;3.30;;;2.50;;
29238;SDS011;16267;48.194;11.546;2023-06-19T04:58:20;3.97;;;2.40;;
29238;SDS011;16267;48.194;11.546;2023-06-19T05:00:48;4.30;;;2.97;;
29238;SDS011;16267;48.194;11.546;2023-06-19T05:03:17;6.68;;;2.70;;
29238;SDS011;16267;48.194;11.546;2023-06-19T05:05:43;4.00;;;2.38;;
29238;SDS011;16267;48.194;11.546;2023-06-19T05:08:09;4.95;;;3.05;;
29238;SDS011;16267;48.194;11.546;2023-06-19T05:10:35;3.92;;;2.50;;
29238;SDS011;16267;48.194;11.546;2023-06-19T05:13:01;4.53;;;2.78;;
29238;SDS011;16267;48.194;11.546;2023-06-19T05:15:27;3.72;;;2.30;;
29238;SDS011;16267;48.194;11.546;2023-06-19T05:17:53;3.85;;;2.60;;
29238;SDS011;16267;48.194;11.546;2023-06-19T05:20:19;4.20;;;2.75;;
29238;SDS011;16267;48.194;11.546;2023-06-19T05:22:45;4.43;;;3.05;;
29238;SDS011;16267;48.194;11.546;2023-06-19T05:25:11;3.70;;;2.35;;
29238;SDS011;16267;48.194;11.546;2023-06-19T05:27:37;4.95;;;2.75;;
29238;SDS011;16267;48.194;11.546;2023-06-19T05:30:03;3.65;;;2.33;;
29238;SDS011;16267;48.194;11.546;2023-06-19T05:32:30;3.42;;;2.00;;
29238;SDS011;16267;48.194;11.546;2023-06-19T05:34:55;3.65;;;2.22;;
29238;SDS011;16267;48.194;11.546;2023-06-19T05:37:21;3.85;;;2.58;;
29238;SDS011;16267;48.194;11.546;2023-06-19T05:39:48;3.10;;;1.92;;
29238;SDS011;16267;48.194;11.546;2023-06-19T05:42:14;3.13;;;1.90;;
29238;SDS011;16267;48.194;11.546;2023-06-19T05:44:40;3.25;;;1.75;;
29238;SDS011;16267;48.194;11.546;2023-06-19T05:47:06;2.70;;;2.28;;
29238;SDS011;16267;48.194;11.546;2023-06-19T05:49:31;3.55;;;2.35;;
29238;SDS011;16267;48.194;11.546;2023-06-19T05:51:57;4.25;;;2.63;;
29238;SDS011;16267;48.194;11.546;2023-06-19T05:54:24;4.65;;;2.58;;
29238;SDS011;16267;48.194;11.546;2023-06-19T05:56:50;4.40;;;2.33;;
29238;SDS011;16267;48.194;11.546;2023-06-19T05:59:17;4.13;;;2.00;;
29238;SDS011;16267;48.194;11.546;2023-06-19T06:01:43;5.72;;;2.58;;
29238;SDS011;16267;48.194;11.546;2023-06-19T06:04:08;3.38;;;2.20;;
29238;SDS011;16267;48.194;11.546;2023-06-19T06:06:34;3.55;;;2.05;;
29238;SDS011;16267;48.194;11.546;2023-06-19T06:09:00;5.07;;;2.28;;
29238;SDS011;16267;48.194;11.546;2023-06-19T06:11:26;4.78;;;2.35;;
29238;SDS011;16267;48.194;11.546;2023-06-19T06:13:52;3.67;;;2.03;;
29238;SDS011;16267;48.194;11.546;2023-06-19T06:16:17;2.80;;;2.20;;
29238;SDS011;16267;48.194;11.546;2023-06-19T06:18:44;4.68;;;2.20;;
29238;SDS011;16267;48.194;11.546;2023-06-19T06:21:10;2.67;;;2.03;;
29238;SDS011;16267;48.194;11.546;2023-06-19T06:23:38;2.85;;;1.67;;
29238;SDS011;16267;48.194;11.546;2023-06-19T06:26:05;3.35;;;2.13;;
29238;SDS011;16267;48.194;11.546;2023-06-19T06:28:31;4.50;;;1.88;;
29238;SDS011;16267;48.194;11.546;2023-06-19T06:30:57;3.25;;;2.10;;
29238;SDS011;16267;48.194;11.546;2023-06-19T06:33:23;2.53;;;2.10;;
29238;SDS011;16267;48.194;11.546;2023-06-19T06:35:49;2.78;;;1.80;;
29238;SDS011;16267;48.194;11.546;2023-06-19T06:38:16;3.28;;;2.10;;
29238;SDS011;16267;48.194;11.546;2023-06-19T06:40:42;2.67;;;2.00;;
29238;SDS011;16267;48.194;11.546;2023-06-19T06:43:08;3.75;;;2.08;;
29238;SDS011;16267;48.194;11.546;2023-06-19T06:45:34;4.32;;;2.42;;
29238;SDS011;16267;48.194;11.546;2023-06-19T06:48:02;3.42;;;2.33;;
29238;SDS011;16267;48.194;11.546;2023-06-19T06:50:31;2.60;;;1.75;;
29238;SDS011;16267;48.194;11.546;2023-06-19T06:52:57;3.38;;;1.92;;
29238;SDS011;16267;48.194;11.546;2023-06-19T06:55:23;3.40;;;1.92;;
29238;SDS011;16267;48.194;11.546;2023-06-19T06:57:49;3.20;;;1.95;;
29238;SDS011;16267;48.194;11.546;2023-06-19T07:00:15;3.05;;;2.00;;
29238;SDS011;16267;48.194;11.546;2023-06-19T07:02:43;3.13;;;2.10;;
29238;SDS011;16267;48.194;11.546;2023-06-19T07:05:09;3.45;;;1.52;;
29238;SDS011;16267;48.194;11.546;2023-06-19T07:07:36;3.72;;;1.98;;
29238;SDS011;16267;48.194;11.546;2023-06-19T07:10:02;3.75;;;1.67;;
29238;SDS011;16267;48.194;11.546;2023-06-19T07:12:28;1.92;;;1.63;;
29238;SDS011;16267;48.194;11.546;2023-06-19T07:14:53;3.00;;;2.08;;
29238;SDS011;16267;48.194;11.546;2023-06-19T07:17:19;2.28;;;1.50;;
29238;SDS011;16267;48.194;11.546;2023-06-19T07:19:45;2.92;;;1.58;;
29238;SDS011;16267;48.194;11.546;2023-06-19T07:22:11;2.95;;;1.85;;
29238;SDS011;16267;48.194;11.546;2023-06-19T07:24:39;3.45;;;1.67;;
29238;SDS011;16267;48.194;11.546;2023-06-19T07:27:06;4.07;;;1.65;;
29238;SDS011;16267;48.194;11.546;2023-06-19T07:29:31;2.60;;;1.80;;
29238;SDS011;16267;48.194;11.546;2023-06-19T07:31:57;4.25;;;1.80;;
29238;SDS011;16267;48.194;11.546;2023-06-19T07:34:23;3.38;;;1.85;;
29238;SDS011;16267;48.194;11.546;2023-06-19T07:36:50;3.80;;;2.33;;
29238;SDS011;16267;48.194;11.546;2023-06-19T07:39:16;3.08;;;1.98;;
29238;SDS011;16267;48.194;11.546;2023-06-19T07:41:41;3.17;;;2.10;;
29238;SDS011;16267;48.194;11.546;2023-06-19T07:44:07;2.78;;;1.88;;
29238;SDS011;16267;48.194;11.546;2023-06-19T07:46:33;3.15;;;2.00;;
29238;SDS011;16267;48.194;11.546;2023-06-19T07:48:59;2.83;;;1.90;;
29238;SDS011;16267;48.194;11.546;2023-06-19T07:51:24;3.75;;;1.83;;
29238;SDS011;16267;48.194;11.546;2023-06-19T07:53:50;2.08;;;1.48;;
29238;SDS011;16267;48.194;11.546;2023-06-19T07:56:16;2.55;;;1.40;;
29238;SDS011;16267;48.194;11.546;2023-06-19T07:58:41;2.00;;;1.48;;
29238;SDS011;16267;48.194;11.546;2023-06-19T08:01:07;2.15;;;1.40;;
29238;SDS011;16267;48.194;11.546;2023-06-19T08:03:33;2.30;;;1.50;;
29238;SDS011;16267;48.194;11.546;2023-06-19T08:05:59;2.10;;;1.55;;
29238;SDS011;16267;48.194;11.546;2023-06-19T08:08:24;2.25;;;1.70;;
29238;SDS011;16267;48.194;11.546;2023-06-19T08:10:50;2.13;;;1.23;;
29238;SDS011;16267;48.194;11.546;2023-06-19T08:13:16;3.10;;;2.17;;
29238;SDS011;16267;48.194;11.546;2023-06-19T08:15:42;1.75;;;1.30;;
29238;SDS011;16267;48.194;11.546;2023-06-19T08:18:09;2.35;;;1.88;;
29238;SDS011;16267;48.194;11.546;2023-06-19T08:20:35;2.05;;;1.50;;
29238;SDS011;16267;48.194;11.546;2023-06-19T08:23:00;1.58;;;1.45;;
29238;SDS011;16267;48.194;11.546;2023-06-19T08:25:26;2.10;;;1.60;;
29238;SDS011;16267;48.194;11.546;2023-06-19T08:27:52;1.63;;;1.00;;
29238;SDS011;16267;48.194;11.546;2023-06-19T08:30:18;1.20;;;1.10;;
29238;SDS011;16267;48.194;11.546;2023-06-19T08:32:46;2.42;;;1.38;;
29238;SDS011;16267;48.194;11.546;2023-06-19T08:35:13;1.70;;;1.30;;
29238;SDS011;16267;48.194;11.546;2023-06-19T08:37:40;2.28;;;1.30;;
29238;SDS011;16267;48.194;11.546;2023-06-19T08:40:06;1.98;;;1.30;;
29238;SDS011;16267;48.194;11.546;2023-06-19T08:42:52;2.65;;;1.35;;
29238;SDS011;16267;48.194;11.546;2023-06-19T08:45:20;2.28;;;0.90;;
29238;SDS011;16267;48.194;11.546;2023-06-19T08:47:47;1.65;;;1.02;;
29238;SDS011;16267;48.194;11.546;2023-06-19T08:50:14;1.13;;;0.90;;
29238;SDS011;16267;48.194;11.546;2023-06-19T08:52:41;1.30;;;1.00;;
29238;SDS011;16267;48.194;11.546;2023-06-19T08:55:07;1.35;;;0.80;;
29238;SDS011;16267;48.194;11.546;2023-06-19T08:57:39;1.35;;;0.90;;
29238;SDS011;16267;48.194;11.546;2023-06-19T09:02:45;1.02;;;0.77;;
29238;SDS011;16267;48.194;11.546;2023-06-19T09:05:15;1.42;;;0.90;;
29238;SDS011;16267;48.194;11.546;2023-06-19T09:07:43;1.50;;;1.02;;
29238;SDS011;16267;48.194;11.546;2023-06-19T09:10:18;1.77;;;1.00;;
29238;SDS011;16267;48.194;11.546;2023-06-19T09:12:55;1.10;;;0.75;;
29238;SDS011;16267;48.194;11.546;2023-06-19T09:15:34;2.53;;;1.23;;
29238;SDS011;16267;48.194;11.546;2023-06-19T09:20:40;1.67;;;0.98;;
29238;SDS011;16267;48.194;11.546;2023-06-19T09:23:09;1.50;;;1.08;;
29238;SDS011;16267;48.194;11.546;2023-06-19T09:25:46;1.40;;;0.90;;
29238;SDS011;16267;48.194;11.546;2023-06-19T09:28:25;1.30;;;0.98;;
29238;SDS011;16267;48.194;11.546;2023-06-19T09:33:59;2.50;;;1.50;;
29238;SDS011;16267;48.194;11.546;2023-06-19T09:36:24;2.28;;;1.27;;
29238;SDS011;16267;48.194;11.546;2023-06-19T09:38:52;1.45;;;1.10;;
29238;SDS011;16267;48.194;11.546;2023-06-19T09:41:20;1.98;;;1.40;;
29238;SDS011;16267;48.194;11.546;2023-06-19T09:43:47;2.33;;;1.50;;
29238;SDS011;16267;48.194;11.546;2023-06-19T09:46:15;1.92;;;1.20;;
29238;SDS011;16267;48.194;11.546;2023-06-19T09:48:44;1.33;;;0.98;;
29238;SDS011;16267;48.194;11.546;2023-06-19T09:51:21;2.10;;;1.45;;
29238;SDS011;16267;48.194;11.546;2023-06-19T09:53:57;2.92;;;1.50;;
29238;SDS011;16267;48.194;11.546;2023-06-19T09:56:24;1.23;;;1.00;;
29238;SDS011;16267;48.194;11.546;2023-06-19T09:58:52;1.90;;;1.40;;
29238;SDS011;16267;48.194;11.546;2023-06-19T10:01:24;2.40;;;1.63;;
29238;SDS011;16267;48.194;11.546;2023-06-19T10:04:08;2.13;;;1.38;;
29238;SDS011;16267;48.194;11.546;2023-06-19T10:06:43;2.15;;;1.50;;
29238;SDS011;16267;48.194;11.546;2023-06-19T10:09:10;2.70;;;1.20;;
29238;SDS011;16267;48.194;11.546;2023-06-19T10:11:49;2.00;;;1.50;;
29238;SDS011;16267;48.194;11.546;2023-06-19T10:14:17;2.72;;;1.20;;
29238;SDS011;16267;48.194;11.546;2023-06-19T10:16:47;2.38;;;1.48;;
29238;SDS011;16267;48.194;11.546;2023-06-19T10:19:18;1.67;;;1.27;;
29238;SDS011;16267;48.194;11.546;2023-06-19T10:21:51;1.88;;;1.08;;
29238;SDS011;16267;48.194;11.546;2023-06-19T10:24:18;1.27;;;0.83;;
29238;SDS011;16267;48.194;11.546;2023-06-19T10:26:55;1.20;;;0.80;;
29238;SDS011;16267;48.194;11.546;2023-06-19T10:29:26;1.27;;;0.90;;
29238;SDS011;16267;48.194;11.546;2023-06-19T10:32:02;1.60;;;0.88;;
29238;SDS011;16267;48.194;11.546;2023-06-19T10:34:35;0.95;;;0.80;;
29238;SDS011;16267;48.194;11.546;2023-06-19T10:37:01;1.50;;;1.02;;
29238;SDS011;16267;48.194;11.546;2023-06-19T10:39:28;1.33;;;0.80;;
29238;SDS011;16267;48.194;11.546;2023-06-19T10:41:55;1.00;;;0.73;;
29238;SDS011;16267;48.194;11.546;2023-06-19T10:44:22;1.23;;;0.70;;
29238;SDS011;16267;48.194;11.546;2023-06-19T10:46:50;1.05;;;0.80;;
29238;SDS011;16267;48.194;11.546;2023-06-19T10:49:18;1.38;;;0.90;;
29238;SDS011;16267;48.194;11.546;2023-06-19T10:51:44;0.55;;;0.55;;
29238;SDS011;16267;48.194;11.546;2023-06-19T10:54:09;1.02;;;0.90;;
29238;SDS011;16267;48.194;11.546;2023-06-19T10:56:35;1.20;;;0.85;;
29238;SDS011;16267;48.194;11.546;2023-06-19T10:59:05;1.23;;;0.75;;
29238;SDS011;16267;48.194;11.546;2023-06-19T11:01:40;1.00;;;0.80;;
29238;SDS011;16267;48.194;11.546;2023-06-19T11:04:09;0.55;;;0.50;;
29238;SDS011;16267;48.194;11.546;2023-06-19T11:06:37;1.02;;;0.73;;
29238;SDS011;16267;48.194;11.546;2023-06-19T11:09:05;1.13;;;0.80;;
29238;SDS011;16267;48.194;11.546;2023-06-19T11:14:11;1.27;;;0.80;;
29238;SDS011;16267;48.194;11.546;2023-06-19T11:16:39;1.10;;;0.80;;
29238;SDS011;16267;48.194;11.546;2023-06-19T11:19:16;1.17;;;0.85;;
29238;SDS011;16267;48.194;11.546;2023-06-19T11:21:47;0.98;;;0.70;;
29238;SDS011;16267;48.194;11.546;2023-06-19T11:24:15;1.50;;;1.17;;
29238;SDS011;16267;48.194;11.546;2023-06-19T11:26:42;0.93;;;0.70;;
29238;SDS011;16267;48.194;11.546;2023-06-19T11:29:19;1.40;;;0.90;;
29238;SDS011;16267;48.194;11.546;2023-06-19T11:31:50;0.60;;;0.60;;
29238;SDS011;16267;48.194;11.546;2023-06-19T11:34:32;1.30;;;0.88;;
29238;SDS011;16267;48.194;11.546;2023-06-19T11:39:47;2.22;;;0.65;;
29238;SDS011;16267;48.194;11.546;2023-06-19T11:42:15;0.73;;;0.65;;
29238;SDS011;16267;48.194;11.546;2023-06-19T11:44:54;1.27;;;0.80;;
29238;SDS011;16267;48.194;11.546;2023-06-19T11:47:31;1.13;;;0.80;;
29238;SDS011;16267;48.194;11.546;2023-06-19T11:49:58;0.70;;;0.50;;
29238;SDS011;16267;48.194;11.546;2023-06-19T11:52:25;0.57;;;0.57;;
29238;SDS011;16267;48.194;11.546;2023-06-19T11:54:51;0.82;;;0.60;;
29238;SDS011;16267;48.194;11.546;2023-06-19T11:57:17;1.10;;;0.70;;
29238;SDS011;16267;48.194;11.546;2023-06-19T11:59:42;0.75;;;0.73;;
29238;SDS011;16267;48.194;11.546;2023-06-19T12:02:08;0.95;;;0.70;;
29238;SDS011;16267;48.194;11.546;2023-06-19T12:04:34;1.58;;;0.80;;
29238;SDS011;16267;48.194;11.546;2023-06-19T12:07:00;0.75;;;0.60;;
29238;SDS011;16267;48.194;11.546;2023-06-19T12:09:28;1.33;;;0.82;;
29238;SDS011;16267;48.194;11.546;2023-06-19T12:15:11;0.95;;;0.60;;
29238;SDS011;16267;48.194;11.546;2023-06-19T12:17:36;0.77;;;0.77;;
29238;SDS011;16267;48.194;11.546;2023-06-19T12:20:02;1.40;;;0.90;;
29238;SDS011;16267;48.194;11.546;2023-06-19T12:22:32;0.73;;;0.68;;
29238;SDS011;16267;48.194;11.546;2023-06-19T12:24:59;0.70;;;0.70;;
29238;SDS011;16267;48.194;11.546;2023-06-19T12:27:26;1.20;;;0.75;;
29238;SDS011;16267;48.194;11.546;2023-06-19T12:29:52;1.20;;;0.98;;
29238;SDS011;16267;48.194;11.546;2023-06-19T12:32:18;0.82;;;0.65;;
29238;SDS011;16267;48.194;11.546;2023-06-19T12:34:46;1.00;;;0.77;;
29238;SDS011;16267;48.194;11.546;2023-06-19T12:37:15;1.20;;;1.00;;
29238;SDS011;16267;48.194;11.546;2023-06-19T12:39:44;1.13;;;1.00;;
29238;SDS011;16267;48.194;11.546;2023-06-19T12:42:10;0.98;;;0.82;;
29238;SDS011;16267;48.194;11.546;2023-06-19T12:44:42;0.98;;;0.77;;
29238;SDS011;16267;48.194;11.546;2023-06-19T12:49:36;0.93;;;0.55;;
29238;SDS011;16267;48.194;11.546;2023-06-19T12:52:03;1.13;;;0.93;;
29238;SDS011;16267;48.194;11.546;2023-06-19T12:54:29;1.50;;;0.88;;
29238;SDS011;16267;48.194;11.546;2023-06-19T12:56:55;1.15;;;0.60;;
29238;SDS011;16267;48.194;11.546;2023-06-19T12:59:21;1.38;;;0.90;;
29238;SDS011;16267;48.194;11.546;2023-06-19T13:01:49;0.95;;;0.75;;
29238;SDS011;16267;48.194;11.546;2023-06-19T13:04:15;1.15;;;0.93;;
29238;SDS011;16267;48.194;11.546;2023-06-19T13:06:41;0.93;;;0.90;;
29238;SDS011;16267;48.194;11.546;2023-06-19T13:09:06;1.02;;;0.70;;
29238;SDS011;16267;48.194;11.546;2023-06-19T13:11:32;1.10;;;0.80;;
29238;SDS011;16267;48.194;11.546;2023-06-19T13:14:01;1.58;;;1.08;;
29238;SDS011;16267;48.194;11.546;2023-06-19T13:16:27;0.80;;;0.60;;
29238;SDS011;16267;48.194;11.546;2023-06-19T13:18:53;1.27;;;0.80;;
29238;SDS011;16267;48.194;11.546;2023-06-19T13:21:18;1.42;;;0.90;;
29238;SDS011;16267;48.194;11.546;2023-06-19T13:23:44;1.38;;;0.82;;
29238;SDS011;16267;48.194;11.546;2023-06-19T13:26:10;1.15;;;0.73;;
29238;SDS011;16267;48.194;11.546;2023-06-19T13:28:36;0.65;;;0.50;;
29238;SDS011;16267;48.194;11.546;2023-06-19T13:31:02;1.40;;;0.88;;
29238;SDS011;16267;48.194;11.546;2023-06-19T13:33:29;1.35;;;0.90;;
29238;SDS011;16267;48.194;11.546;2023-06-19T13:35:54;1.13;;;0.80;;
29238;SDS011;16267;48.194;11.546;2023-06-19T13:38:20;1.25;;;0.90;;
29238;SDS011;16267;48.194;11.546;2023-06-19T13:40:46;1.77;;;1.00;;
29238;SDS011;16267;48.194;11.546;2023-06-19T13:43:12;1.20;;;1.02;;
29238;SDS011;16267;48.194;11.546;2023-06-19T13:45:39;2.28;;;1.20;;
29238;SDS011;16267;48.194;11.546;2023-06-19T13:48:05;0.95;;;0.80;;
29238;SDS011;16267;48.194;11.546;2023-06-19T13:50:31;1.02;;;0.70;;
29238;SDS011;16267;48.194;11.546;2023-06-19T13:52:58;1.55;;;0.70;;
29238;SDS011;16267;48.194;11.546;2023-06-19T13:55:27;1.13;;;1.02;;
29238;SDS011;16267;48.194;11.546;2023-06-19T13:57:53;1.08;;;0.80;;
29238;SDS011;16267;48.194;11.546;2023-06-19T14:00:19;0.95;;;0.80;;
29238;SDS011;16267;48.194;11.546;2023-06-19T14:02:45;1.23;;;0.88;;
29238;SDS011;16267;48.194;11.546;2023-06-19T14:05:11;1.38;;;0.90;;
29238;SDS011;16267;48.194;11.546;2023-06-19T14:07:40;1.38;;;1.10;;
29238;SDS011;16267;48.194;11.546;2023-06-19T14:10:10;1.17;;;0.77;;
29238;SDS011;16267;48.194;11.546;2023-06-19T14:12:35;1.35;;;0.90;;
29238;SDS011;16267;48.194;11.546;2023-06-19T14:15:01;1.25;;;0.90;;
29238;SDS011;16267;48.194;11.546;2023-06-19T14:17:27;1.75;;;1.00;;
29238;SDS011;16267;48.194;11.546;2023-06-19T14:19:53;1.35;;;1.10;;
29238;SDS011;16267;48.194;11.546;2023-06-19T14:22:20;1.05;;;0.93;;
29238;SDS011;16267;48.194;11.546;2023-06-19T14:24:46;0.95;;;0.90;;
29238;SDS011;16267;48.194;11.546;2023-06-19T14:27:12;2.00;;;1.00;;
29238;SDS011;16267;48.194;11.546;2023-06-19T14:29:40;1.70;;;1.10;;
29238;SDS011;16267;48.194;11.546;2023-06-19T14:32:06;1.60;;;1.08;;
29238;SDS011;16267;48.194;11.546;2023-06-19T14:34:32;1.50;;;1.20;;
29238;SDS011;16267;48.194;11.546;2023-06-19T14:36:58;0.82;;;0.75;;
29238;SDS011;16267;48.194;11.546;2023-06-19T14:39:23;4.97;;;1.00;;
29238;SDS011;16267;48.194;11.546;2023-06-19T14:41:49;1.73;;;1.23;;
29238;SDS011;16267;48.194;11.546;2023-06-19T14:44:15;1.35;;;1.02;;
29238;SDS011;16267;48.194;11.546;2023-06-19T14:46:40;1.05;;;0.85;;
29238;SDS011;16267;48.194;11.546;2023-06-19T14:49:06;1.90;;;1.27;;
29238;SDS011;16267;48.194;11.546;2023-06-19T14:51:35;1.92;;;1.20;;
29238;SDS011;16267;48.194;11.546;2023-06-19T14:54:01;2.42;;;1.00;;
29238;SDS011;16267;48.194;11.546;2023-06-19T14:56:27;1.75;;;1.00;;